Time;durP1;ratioP1;P1;durP2;ratioP2;P2;SDS_P1;SDS_P2;PMS_P1;PMS_P2;Temp;Humidity;BMP_temperature;BMP_pressure;BME280_temperature;BME280_humidity;BME280_pressure;Samples;Min_cycle;Max_cycle;Signal;HPM_P1;HPM_P2
2022/10/26 00:01:06;;;;;;;6.95;5.20;;;;;;;;;;1764269;81;21044;-63
2022/10/26 00:03:33;;;;;;;7.47;4.92;;;;;;;;;;1737893;81;21579;-64
2022/10/26 00:06:03;;;;;;;7.60;5.25;;;;;;;;;;1762426;81;21095;-64
2022/10/26 00:08:30;;;;;;;7.65;5.50;;;;;;;;;;1757445;80;21114;-63
2022/10/26 00:10:57;;;;;;;7.25;5.40;;;;;;;;;;1738340;81;21033;-63
2022/10/26 00:13:24;;;;;;;6.92;4.85;;;;;;;;;;1750985;81;21052;-63
2022/10/26 00:15:50;;;;;;;7.58;5.15;;;;;;;;;;1765814;80;21103;-63
2022/10/26 00:18:17;;;;;;;8.60;5.87;;;;;;;;;;1746356;81;21116;-63
2022/10/26 00:20:45;;;;;;;7.62;5.40;;;;;;;;;;1741032;81;21171;-63
2022/10/26 00:23:11;;;;;;;6.15;4.83;;;;;;;;;;1765643;80;21072;-63
2022/10/26 00:25:37;;;;;;;8.20;5.60;;;;;;;;;;1765965;80;21095;-63
2022/10/26 00:28:03;;;;;;;7.92;5.90;;;;;;;;;;1761455;81;21060;-63
2022/10/26 00:30:30;;;;;;;8.25;5.55;;;;;;;;;;1730291;81;21036;-63
2022/10/26 00:32:56;;;;;;;11.18;6.25;;;;;;;;;;1730265;81;21020;-63
2022/10/26 00:35:22;;;;;;;9.95;7.12;;;;;;;;;;1743171;81;21538;-63
2022/10/26 00:37:50;;;;;;;7.58;5.90;;;;;;;;;;1751853;81;21064;-63
2022/10/26 00:40:16;;;;;;;9.88;6.60;;;;;;;;;;1730117;83;21603;-63
2022/10/26 00:42:42;;;;;;;10.30;7.47;;;;;;;;;;1762397;81;21071;-63
2022/10/26 00:45:18;;;;;;;9.25;7.05;;;;;;;;;;1751038;81;21076;-64
2022/10/26 00:47:49;;;;;;;9.23;6.95;;;;;;;;;;1759867;81;21079;-63
2022/10/26 00:50:19;;;;;;;10.10;7.40;;;;;;;;;;1766460;81;21049;-63
2022/10/26 00:52:46;;;;;;;10.03;7.22;;;;;;;;;;1761899;81;21084;-63
2022/10/26 00:55:12;;;;;;;11.60;7.22;;;;;;;;;;1765596;81;21045;-63
2022/10/26 00:57:38;;;;;;;12.28;6.92;;;;;;;;;;1740441;81;21043;-63
2022/10/26 01:00:05;;;;;;;9.20;6.42;;;;;;;;;;1746299;81;21111;-63
2022/10/26 01:02:32;;;;;;;12.10;8.03;;;;;;;;;;1766911;80;21056;-64
2022/10/26 01:04:59;;;;;;;8.43;6.03;;;;;;;;;;1768919;80;21610;-62
2022/10/26 01:07:25;;;;;;;8.28;6.15;;;;;;;;;;1771962;80;21119;-63
2022/10/26 01:09:51;;;;;;;7.28;5.45;;;;;;;;;;1754466;81;21044;-64
2022/10/26 01:12:19;;;;;;;7.53;5.72;;;;;;;;;;1738754;82;21622;-64
2022/10/26 01:14:45;;;;;;;8.63;5.12;;;;;;;;;;1767693;81;21087;-64
2022/10/26 01:17:31;;;;;;;7.90;5.67;;;;;;;;;;1768841;81;21123;-63
2022/10/26 01:20:00;;;;;;;6.85;4.87;;;;;;;;;;1748230;81;21119;-63
2022/10/26 01:22:31;;;;;;;6.87;5.25;;;;;;;;;;1747616;81;21021;-64
2022/10/26 01:25:17;;;;;;;7.08;5.37;;;;;;;;;;1764693;80;21176;-63
2022/10/26 01:27:48;;;;;;;6.85;5.17;;;;;;;;;;1752416;81;21047;-63
2022/10/26 01:30:31;;;;;;;7.85;5.72;;;;;;;;;;1763190;81;21048;-63
2022/10/26 01:33:02;;;;;;;9.88;5.33;;;;;;;;;;1758005;81;21522;-63
2022/10/26 01:35:32;;;;;;;7.03;4.83;;;;;;;;;;1748539;80;21068;-62
2022/10/26 01:38:00;;;;;;;6.40;4.40;;;;;;;;;;1739148;81;21543;-63
2022/10/26 01:40:28;;;;;;;6.20;4.90;;;;;;;;;;1766204;81;21480;-62
2022/10/26 01:42:54;;;;;;;7.83;5.83;;;;;;;;;;1748842;80;21085;-62
2022/10/26 01:45:21;;;;;;;7.50;4.97;;;;;;;;;;1772760;80;21574;-63
2022/10/26 01:47:48;;;;;;;6.90;4.80;;;;;;;;;;1765510;81;21033;-63
2022/10/26 01:50:14;;;;;;;7.05;5.12;;;;;;;;;;1743925;81;21075;-63
2022/10/26 01:52:40;;;;;;;8.25;5.58;;;;;;;;;;1752524;80;21075;-63
2022/10/26 01:55:25;;;;;;;9.33;5.47;;;;;;;;;;1759087;81;21055;-63
2022/10/26 01:57:51;;;;;;;9.58;5.15;;;;;;;;;;1760880;80;21111;-63
2022/10/26 02:00:17;;;;;;;6.83;5.15;;;;;;;;;;1737672;80;21091;-64
2022/10/26 02:05:33;;;;;;;9.18;5.83;;;;;;;;;;1672892;82;78742;-61
2022/10/26 02:08:16;;;;;;;7.25;4.97;;;;;;;;;;1702764;83;21107;-62
2022/10/26 02:11:01;;;;;;;8.18;5.53;;;;;;;;;;1725591;83;21040;-62
2022/10/26 02:13:46;;;;;;;8.55;4.75;;;;;;;;;;1696088;83;21552;-62
2022/10/26 02:16:17;;;;;;;9.40;6.00;;;;;;;;;;1696109;83;21018;-63
2022/10/26 02:18:49;;;;;;;8.33;5.53;;;;;;;;;;1686541;83;21566;-62
2022/10/26 02:21:16;;;;;;;7.92;5.58;;;;;;;;;;1710768;83;21020;-63
2022/10/26 02:23:43;;;;;;;7.15;5.25;;;;;;;;;;1674087;83;21092;-62
2022/10/26 02:26:09;;;;;;;8.53;5.97;;;;;;;;;;1691883;83;21120;-62
2022/10/26 02:28:38;;;;;;;10.70;6.28;;;;;;;;;;1678250;84;21552;-62
2022/10/26 02:31:05;;;;;;;8.50;5.67;;;;;;;;;;1682215;84;21663;-62
2022/10/26 02:33:32;;;;;;;7.50;5.22;;;;;;;;;;1711318;83;21543;-63
2022/10/26 02:35:59;;;;;;;7.12;5.40;;;;;;;;;;1696784;83;21072;-62
2022/10/26 02:38:26;;;;;;;8.45;5.53;;;;;;;;;;1687342;84;21602;-61
2022/10/26 02:40:52;;;;;;;8.50;5.58;;;;;;;;;;1679733;84;21688;-62
2022/10/26 02:43:20;;;;;;;8.65;5.95;;;;;;;;;;1690630;84;21065;-63
2022/10/26 02:45:48;;;;;;;8.85;5.80;;;;;;;;;;1667401;83;21128;-62
2022/10/26 02:48:14;;;;;;;9.68;6.33;;;;;;;;;;1694021;83;21112;-62
2022/10/26 02:50:49;;;;;;;8.88;5.70;;;;;;;;;;1665313;83;21065;-62
2022/10/26 02:53:27;;;;;;;8.00;5.62;;;;;;;;;;1724435;83;21091;-62
2022/10/26 02:55:53;;;;;;;8.18;5.70;;;;;;;;;;1701367;83;21034;-62
2022/10/26 02:58:24;;;;;;;8.70;5.92;;;;;;;;;;1691882;83;21080;-62
2022/10/26 03:00:51;;;;;;;9.50;5.85;;;;;;;;;;1690275;83;21052;-63
2022/10/26 03:03:18;;;;;;;7.65;5.10;;;;;;;;;;1692388;83;21587;-63
2022/10/26 03:05:45;;;;;;;7.95;5.30;;;;;;;;;;1686005;84;21074;-63
2022/10/26 03:08:12;;;;;;;9.90;5.65;;;;;;;;;;1689205;84;21104;-63
2022/10/26 03:10:39;;;;;;;9.43;5.10;;;;;;;;;;1686581;85;21088;-62
2022/10/26 03:13:06;;;;;;;6.25;4.20;;;;;;;;;;1684686;85;21093;-63
2022/10/26 03:15:32;;;;;;;8.43;5.33;;;;;;;;;;1686964;85;21533;-62
2022/10/26 03:17:59;;;;;;;8.28;5.67;;;;;;;;;;1674460;84;21109;-62
2022/10/26 03:20:25;;;;;;;8.38;5.55;;;;;;;;;;1688819;84;21041;-62
2022/10/26 03:22:52;;;;;;;8.80;5.75;;;;;;;;;;1671884;85;21100;-62
2022/10/26 03:25:18;;;;;;;10.13;5.97;;;;;;;;;;1673338;84;21077;-62
2022/10/26 03:27:45;;;;;;;7.33;5.22;;;;;;;;;;1683330;84;21061;-62
2022/10/26 03:30:12;;;;;;;7.95;5.90;;;;;;;;;;1687396;84;21056;-62
2022/10/26 03:32:38;;;;;;;8.03;5.05;;;;;;;;;;1673964;84;21061;-62
2022/10/26 03:35:05;;;;;;;8.30;5.80;;;;;;;;;;1666254;86;21116;-62
2022/10/26 03:37:31;;;;;;;7.95;5.35;;;;;;;;;;1679235;84;21053;-62
2022/10/26 03:39:57;;;;;;;7.58;5.10;;;;;;;;;;1666340;86;21077;-62
2022/10/26 03:42:24;;;;;;;8.90;5.08;;;;;;;;;;1673925;84;21029;-62
2022/10/26 03:44:50;;;;;;;8.70;5.42;;;;;;;;;;1695829;84;21084;-62
2022/10/26 03:47:17;;;;;;;9.80;5.50;;;;;;;;;;1690872;84;22343;-62
2022/10/26 03:49:43;;;;;;;9.55;5.62;;;;;;;;;;1668019;85;21073;-62
2022/10/26 03:52:10;;;;;;;9.08;5.58;;;;;;;;;;1683923;85;21162;-62
2022/10/26 03:54:37;;;;;;;7.12;5.05;;;;;;;;;;1686663;85;21547;-62
2022/10/26 03:57:04;;;;;;;11.03;5.15;;;;;;;;;;1686398;84;21084;-62
2022/10/26 03:59:30;;;;;;;10.40;6.12;;;;;;;;;;1686481;84;21087;-62
2022/10/26 04:01:56;;;;;;;9.05;5.58;;;;;;;;;;1686950;85;21057;-62
2022/10/26 04:04:23;;;;;;;8.50;5.37;;;;;;;;;;1686431;85;21116;-61
2022/10/26 04:06:49;;;;;;;9.88;6.00;;;;;;;;;;1671011;85;21048;-61
2022/10/26 04:09:16;;;;;;;8.28;5.37;;;;;;;;;;1677922;85;21113;-62
2022/10/26 04:11:43;;;;;;;7.55;4.60;;;;;;;;;;1678160;85;21067;-63
2022/10/26 04:14:09;;;;;;;8.40;5.03;;;;;;;;;;1666407;85;21061;-63
2022/10/26 04:16:35;;;;;;;6.97;5.10;;;;;;;;;;1680821;85;21045;-62
2022/10/26 04:19:03;;;;;;;9.88;4.78;;;;;;;;;;1685537;85;21092;-62
2022/10/26 04:21:31;;;;;;;7.67;4.87;;;;;;;;;;1688755;85;21032;-62
2022/10/26 04:23:57;;;;;;;9.00;5.58;;;;;;;;;;1692297;85;21029;-62
2022/10/26 04:26:23;;;;;;;9.85;5.00;;;;;;;;;;1689473;85;21041;-61
2022/10/26 04:28:49;;;;;;;7.97;4.95;;;;;;;;;;1680156;85;21507;-62
2022/10/26 04:31:15;;;;;;;8.00;4.80;;;;;;;;;;1673156;85;21069;-62
2022/10/26 04:33:41;;;;;;;7.72;5.37;;;;;;;;;;1664199;86;21093;-62
2022/10/26 04:36:08;;;;;;;7.47;5.30;;;;;;;;;;1663349;86;22113;-62
2022/10/26 04:38:35;;;;;;;7.62;5.05;;;;;;;;;;1678039;85;21124;-62
2022/10/26 04:41:01;;;;;;;7.30;5.42;;;;;;;;;;1678187;85;21572;-62
2022/10/26 04:43:28;;;;;;;9.28;4.75;;;;;;;;;;1678396;85;21059;-62
2022/10/26 04:45:57;;;;;;;7.78;4.85;;;;;;;;;;1676242;85;21101;-62
2022/10/26 04:48:23;;;;;;;8.70;5.40;;;;;;;;;;1685931;85;21116;-62
2022/10/26 04:50:51;;;;;;;6.83;5.08;;;;;;;;;;1662875;86;21117;-61
2022/10/26 04:53:17;;;;;;;8.85;4.92;;;;;;;;;;1662836;86;21140;-62
2022/10/26 04:55:43;;;;;;;8.33;5.15;;;;;;;;;;1676329;85;21111;-62
2022/10/26 04:58:09;;;;;;;9.00;5.20;;;;;;;;;;1678294;85;21085;-62
2022/10/26 05:00:36;;;;;;;8.05;4.60;;;;;;;;;;1652522;87;21629;-61
2022/10/26 05:03:03;;;;;;;7.08;4.70;;;;;;;;;;1651809;87;21096;-61
2022/10/26 05:05:30;;;;;;;6.70;4.83;;;;;;;;;;1628845;87;21108;-62
2022/10/26 05:07:57;;;;;;;8.55;5.65;;;;;;;;;;1695399;84;21080;-62
2022/10/26 05:10:23;;;;;;;7.12;5.10;;;;;;;;;;1681731;84;21072;-62
2022/10/26 05:12:52;;;;;;;8.50;4.70;;;;;;;;;;1669084;84;21155;-63
2022/10/26 05:15:18;;;;;;;7.55;4.97;;;;;;;;;;1665860;84;21096;-63
2022/10/26 05:17:46;;;;;;;14.33;7.28;;;;;;;;;;1678277;84;21081;-62
2022/10/26 05:20:13;;;;;;;7.42;5.25;;;;;;;;;;1684093;84;21358;-63
2022/10/26 05:22:40;;;;;;;8.30;5.90;;;;;;;;;;1667893;85;21093;-60
2022/10/26 05:25:07;;;;;;;13.22;9.00;;;;;;;;;;1666006;86;22234;-60
2022/10/26 05:27:33;;;;;;;10.13;7.35;;;;;;;;;;1677216;84;21104;-60
2022/10/26 05:29:59;;;;;;;8.03;5.30;;;;;;;;;;1691851;84;22027;-61
2022/10/26 05:32:26;;;;;;;7.40;4.90;;;;;;;;;;1693520;84;21041;-62
2022/10/26 05:34:52;;;;;;;9.75;5.70;;;;;;;;;;1692032;84;21116;-63
2022/10/26 05:37:18;;;;;;;6.58;4.53;;;;;;;;;;1688749;84;21104;-62
2022/10/26 05:39:44;;;;;;;7.83;4.87;;;;;;;;;;1686319;85;22211;-62
2022/10/26 05:42:11;;;;;;;12.53;5.95;;;;;;;;;;1669089;86;21591;-62
2022/10/26 05:44:38;;;;;;;8.10;5.33;;;;;;;;;;1683729;84;21080;-63
2022/10/26 05:47:05;;;;;;;10.80;5.95;;;;;;;;;;1682197;84;21069;-62
2022/10/26 05:49:31;;;;;;;8.98;5.58;;;;;;;;;;1679710;84;21583;-62
2022/10/26 05:51:57;;;;;;;8.53;5.70;;;;;;;;;;1677443;84;21002;-62
2022/10/26 05:54:24;;;;;;;9.58;5.35;;;;;;;;;;1693778;84;21079;-63
2022/10/26 05:56:50;;;;;;;8.75;5.12;;;;;;;;;;1686768;84;21077;-61
2022/10/26 05:59:18;;;;;;;11.83;7.70;;;;;;;;;;1677978;84;21009;-63
2022/10/26 06:01:57;;;;;;;11.65;8.25;;;;;;;;;;1671988;84;21009;-62
2022/10/26 06:04:28;;;;;;;9.18;5.72;;;;;;;;;;1682800;84;21176;-61
2022/10/26 06:06:54;;;;;;;7.92;5.53;;;;;;;;;;1676077;84;21126;-61
2022/10/26 06:09:22;;;;;;;8.43;5.60;;;;;;;;;;1671823;85;21083;-61
2022/10/26 06:11:49;;;;;;;8.25;5.33;;;;;;;;;;1672508;85;21592;-61
2022/10/26 06:14:16;;;;;;;8.53;5.10;;;;;;;;;;1671637;85;21021;-61
2022/10/26 06:16:49;;;;;;;7.95;5.65;;;;;;;;;;1682710;85;21032;-61
2022/10/26 06:19:20;;;;;;;7.72;4.97;;;;;;;;;;1682263;85;21073;-63
2022/10/26 06:22:06;;;;;;;8.28;5.25;;;;;;;;;;1671700;85;21109;-61
2022/10/26 06:24:37;;;;;;;7.97;5.30;;;;;;;;;;1680327;85;21108;-62
2022/10/26 06:27:05;;;;;;;9.18;5.58;;;;;;;;;;1684540;85;21052;-61
2022/10/26 06:29:33;;;;;;;7.28;5.37;;;;;;;;;;1669793;85;21072;-61
2022/10/26 06:32:00;;;;;;;8.73;5.30;;;;;;;;;;1665158;85;21078;-62
2022/10/26 06:34:27;;;;;;;7.33;5.22;;;;;;;;;;1668932;85;21087;-62
2022/10/26 06:36:53;;;;;;;10.82;5.80;;;;;;;;;;1678228;85;21097;-62
2022/10/26 06:39:21;;;;;;;8.00;5.30;;;;;;;;;;1667389;85;21156;-63
2022/10/26 06:41:48;;;;;;;8.70;5.22;;;;;;;;;;1672947;85;21033;-61
2022/10/26 06:44:21;;;;;;;6.90;4.67;;;;;;;;;;1680089;85;21575;-61
2022/10/26 06:46:54;;;;;;;6.30;5.00;;;;;;;;;;1691242;85;21579;-61
2022/10/26 06:49:22;;;;;;;7.72;4.55;;;;;;;;;;1689816;85;21137;-61
2022/10/26 06:51:58;;;;;;;8.43;5.05;;;;;;;;;;1680819;85;21120;-61
2022/10/26 06:54:30;;;;;;;7.20;4.12;;;;;;;;;;1676292;85;22132;-62
2022/10/26 06:56:56;;;;;;;5.12;4.10;;;;;;;;;;1673004;85;21127;-62
2022/10/26 07:01:19;;;;;;;6.92;4.22;;;;;;;;;;1794434;78;24046;-63
2022/10/26 07:03:46;;;;;;;5.80;4.00;;;;;;;;;;1767753;79;21044;-61
2022/10/26 07:06:12;;;;;;;5.58;4.20;;;;;;;;;;1768217;80;21021;-62
2022/10/26 07:08:38;;;;;;;6.20;4.25;;;;;;;;;;1769369;80;21515;-63
2022/10/26 07:11:05;;;;;;;15.03;5.50;;;;;;;;;;1757751;80;21555;-61
2022/10/26 07:13:32;;;;;;;6.90;4.53;;;;;;;;;;1764185;80;21021;-62
2022/10/26 07:15:58;;;;;;;5.90;4.20;;;;;;;;;;1774652;80;21056;-61
2022/10/26 07:18:24;;;;;;;5.97;4.20;;;;;;;;;;1760334;80;21012;-62
2022/10/26 07:20:52;;;;;;;7.05;3.70;;;;;;;;;;1761552;79;21129;-61
2022/10/26 07:23:19;;;;;;;7.10;4.47;;;;;;;;;;1766827;79;21469;-62
2022/10/26 07:25:45;;;;;;;6.53;4.20;;;;;;;;;;1755442;80;21317;-61
2022/10/26 07:28:11;;;;;;;7.17;4.65;;;;;;;;;;1766672;80;21080;-62
2022/10/26 07:47:14;;;;;;;6.12;4.42;;;;;;;;;;1816955;78;22908;-67
2022/10/26 07:49:40;;;;;;;4.90;3.92;;;;;;;;;;1770311;80;21012;-67
2022/10/26 07:52:08;;;;;;;5.67;3.90;;;;;;;;;;1761177;81;21092;-67
2022/10/26 07:54:34;;;;;;;6.60;4.55;;;;;;;;;;1768943;80;21496;-69
2022/10/26 07:57:00;;;;;;;6.12;4.10;;;;;;;;;;1762710;80;21805;-68
2022/10/26 07:59:26;;;;;;;6.70;4.30;;;;;;;;;;1772771;80;21009;-67
2022/10/26 08:01:52;;;;;;;5.83;4.53;;;;;;;;;;1769825;80;21009;-67
2022/10/26 08:04:18;;;;;;;6.90;4.17;;;;;;;;;;1771268;80;21032;-67
2022/10/26 08:06:46;;;;;;;5.37;3.83;;;;;;;;;;1762038;80;21020;-66
2022/10/26 08:09:12;;;;;;;5.12;3.52;;;;;;;;;;1760946;80;21024;-67
2022/10/26 08:11:38;;;;;;;7.47;4.15;;;;;;;;;;1762024;80;21484;-68
2022/10/26 08:14:04;;;;;;;5.80;4.65;;;;;;;;;;1758902;80;21019;-66
2022/10/26 08:16:30;;;;;;;6.08;4.15;;;;;;;;;;1761604;80;21001;-66
2022/10/26 08:18:56;;;;;;;5.10;3.70;;;;;;;;;;1759490;80;21027;-68
2022/10/26 08:21:22;;;;;;;8.90;4.20;;;;;;;;;;1765324;80;21048;-68
2022/10/26 08:23:48;;;;;;;5.87;3.90;;;;;;;;;;1753584;80;21021;-67
2022/10/26 08:26:16;;;;;;;6.30;4.30;;;;;;;;;;1760221;80;21036;-68
2022/10/26 08:28:43;;;;;;;5.75;3.92;;;;;;;;;;1760423;81;21575;-70
2022/10/26 08:31:09;;;;;;;5.58;3.87;;;;;;;;;;1759312;80;21050;-69
2022/10/26 08:33:35;;;;;;;6.83;4.58;;;;;;;;;;1754022;80;21089;-69
2022/10/26 08:36:02;;;;;;;6.53;4.33;;;;;;;;;;1744742;81;22187;-70
2022/10/26 08:38:28;;;;;;;7.85;4.47;;;;;;;;;;1726438;81;21067;-69
2022/10/26 08:40:55;;;;;;;7.25;4.50;;;;;;;;;;1726387;81;21040;-68
2022/10/26 08:43:23;;;;;;;5.20;4.03;;;;;;;;;;1741642;81;21056;-67
2022/10/26 08:45:51;;;;;;;6.55;3.95;;;;;;;;;;1743948;81;21020;-69
2022/10/26 08:48:19;;;;;;;7.37;4.35;;;;;;;;;;1719725;81;21094;-69
2022/10/26 08:50:47;;;;;;;6.03;4.08;;;;;;;;;;1726582;82;21088;-68
2022/10/26 08:53:15;;;;;;;5.80;4.05;;;;;;;;;;1719935;82;21084;-68
2022/10/26 08:55:49;;;;;;;5.60;3.92;;;;;;;;;;1738265;82;21009;-66
2022/10/26 08:58:17;;;;;;;4.47;3.47;;;;;;;;;;1722644;82;21028;-67
2022/10/26 09:00:43;;;;;;;5.22;3.80;;;;;;;;;;1716197;82;21041;-67
2022/10/26 09:03:16;;;;;;;5.87;3.90;;;;;;;;;;1716836;82;21801;-67
2022/10/26 09:05:59;;;;;;;5.33;3.45;;;;;;;;;;1715200;82;21500;-67
2022/10/26 09:08:27;;;;;;;5.03;3.47;;;;;;;;;;1682103;84;21059;-67
2022/10/26 09:11:07;;;;;;;5.67;3.83;;;;;;;;;;1688542;82;21547;-69
2022/10/26 09:13:48;;;;;;;6.37;3.77;;;;;;;;;;1742016;82;21601;-68
2022/10/26 09:16:22;;;;;;;4.90;3.77;;;;;;;;;;1747514;81;21065;-68
2022/10/26 09:19:02;;;;;;;6.92;4.35;;;;;;;;;;1746745;82;21578;-68
2022/10/26 09:21:34;;;;;;;5.05;3.77;;;;;;;;;;1737078;81;21540;-68
2022/10/26 09:24:02;;;;;;;5.42;3.50;;;;;;;;;;1723203;82;20973;-67
2022/10/26 09:26:31;;;;;;;6.22;4.03;;;;;;;;;;1724268;82;20987;-69
2022/10/26 09:28:59;;;;;;;6.75;4.75;;;;;;;;;;1733848;82;21627;-68
2022/10/26 09:31:25;;;;;;;6.92;4.72;;;;;;;;;;1730078;81;21550;-69
2022/10/26 09:33:51;;;;;;;5.95;4.22;;;;;;;;;;1744045;82;21032;-69
2022/10/26 09:36:18;;;;;;;6.10;4.53;;;;;;;;;;1739525;81;21042;-70
2022/10/26 09:38:52;;;;;;;6.10;4.60;;;;;;;;;;1741811;82;21627;-71
2022/10/26 09:41:28;;;;;;;6.97;4.35;;;;;;;;;;1738932;82;21021;-75
2022/10/26 09:44:02;;;;;;;6.87;4.62;;;;;;;;;;1729340;82;20977;-73
2022/10/26 09:46:33;;;;;;;6.97;4.92;;;;;;;;;;1741551;81;21466;-73
2022/10/26 09:49:06;;;;;;;6.00;4.45;;;;;;;;;;1737667;81;21422;-74
2022/10/26 09:51:35;;;;;;;8.43;4.50;;;;;;;;;;1739272;81;21040;-74
2022/10/26 10:05:53;;;;;;;7.28;5.22;;;;;;;;;;1782965;78;23131;-69
2022/10/26 10:08:24;;;;;;;7.37;4.80;;;;;;;;;;1746360;81;21551;-69
2022/10/26 10:10:55;;;;;;;5.90;4.17;;;;;;;;;;1772835;80;22513;-69
2022/10/26 10:13:21;;;;;;;7.00;4.45;;;;;;;;;;1783927;79;21114;-69
2022/10/26 10:15:50;;;;;;;8.93;4.53;;;;;;;;;;1771203;79;21044;-69
2022/10/26 10:18:18;;;;;;;7.25;4.37;;;;;;;;;;1766513;79;21065;-69
2022/10/26 10:20:54;;;;;;;6.62;4.70;;;;;;;;;;1780800;79;21710;-69
2022/10/26 10:23:30;;;;;;;7.62;4.65;;;;;;;;;;1773195;80;21083;-69
2022/10/26 10:25:57;;;;;;;6.20;4.67;;;;;;;;;;1780749;79;21084;-68
2022/10/26 10:28:24;;;;;;;6.75;4.30;;;;;;;;;;1771227;79;21077;-68
2022/10/26 10:30:51;;;;;;;7.78;5.20;;;;;;;;;;1764531;80;21066;-69
2022/10/26 10:33:17;;;;;;;5.45;4.15;;;;;;;;;;1764552;79;21052;-69
2022/10/26 10:35:50;;;;;;;7.75;4.25;;;;;;;;;;1762983;80;21598;-70
2022/10/26 10:38:16;;;;;;;7.53;4.62;;;;;;;;;;1770936;79;21035;-68
2022/10/26 10:40:44;;;;;;;6.12;4.20;;;;;;;;;;1763468;79;21055;-68
2022/10/26 10:43:11;;;;;;;7.00;4.25;;;;;;;;;;1735860;81;21040;-67
2022/10/26 10:45:38;;;;;;;6.33;4.28;;;;;;;;;;1768535;80;21071;-69
2022/10/26 10:48:05;;;;;;;7.17;4.00;;;;;;;;;;1751117;81;21016;-67
2022/10/26 10:50:31;;;;;;;6.22;4.25;;;;;;;;;;1756478;80;21063;-67
2022/10/26 10:53:18;;;;;;;7.35;4.75;;;;;;;;;;1773028;79;21535;-67
2022/10/26 10:55:49;;;;;;;4.92;3.62;;;;;;;;;;1770772;80;21068;-68
2022/10/26 10:58:18;;;;;;;7.53;3.67;;;;;;;;;;1772586;80;21134;-67
2022/10/26 11:00:45;;;;;;;5.80;4.20;;;;;;;;;;1775770;80;21021;-67
2022/10/26 11:03:15;;;;;;;6.90;4.72;;;;;;;;;;1775590;80;21085;-68
2022/10/26 11:05:46;;;;;;;5.42;4.20;;;;;;;;;;1770018;80;21009;-68
2022/10/26 11:08:18;;;;;;;8.73;4.45;;;;;;;;;;1770466;80;21542;-69
2022/10/26 11:10:53;;;;;;;7.10;4.87;;;;;;;;;;1765938;80;21115;-69
2022/10/26 11:13:21;;;;;;;7.25;4.70;;;;;;;;;;1788729;80;21066;-71
2022/10/26 11:15:48;;;;;;;6.25;4.12;;;;;;;;;;1766100;80;21013;-70
2022/10/26 11:18:16;;;;;;;6.65;3.98;;;;;;;;;;1789123;80;21008;-68
2022/10/26 11:20:45;;;;;;;7.60;4.40;;;;;;;;;;1771119;80;21051;-69
2022/10/26 11:23:19;;;;;;;7.37;4.92;;;;;;;;;;1767896;80;21067;-69
2022/10/26 11:25:50;;;;;;;7.20;4.53;;;;;;;;;;1744568;80;22151;-68
2022/10/26 11:28:36;;;;;;;7.70;4.35;;;;;;;;;;1759287;80;21553;-68
2022/10/26 11:31:05;;;;;;;9.50;4.55;;;;;;;;;;1764701;80;21045;-68
2022/10/26 11:33:36;;;;;;;6.35;4.05;;;;;;;;;;1769817;80;20995;-69
2022/10/26 11:36:04;;;;;;;6.17;4.22;;;;;;;;;;1760190;80;21044;-69
2022/10/26 11:38:41;;;;;;;7.65;4.33;;;;;;;;;;1765627;80;20973;-67
2022/10/26 11:41:14;;;;;;;5.55;4.10;;;;;;;;;;1748227;80;21040;-68
2022/10/26 11:43:45;;;;;;;9.68;4.97;;;;;;;;;;1756062;80;21048;-68
2022/10/26 11:46:22;;;;;;;6.95;4.33;;;;;;;;;;1764025;81;21595;-66
2022/10/26 11:49:06;;;;;;;6.17;3.95;;;;;;;;;;1763892;80;21212;-65
2022/10/26 11:51:44;;;;;;;5.97;4.10;;;;;;;;;;1764413;80;21542;-68
2022/10/26 11:54:14;;;;;;;7.15;4.75;;;;;;;;;;1765444;80;21024;-66
2022/10/26 11:56:43;;;;;;;8.60;4.80;;;;;;;;;;1767569;80;21096;-65
2022/10/26 11:59:11;;;;;;;8.30;4.55;;;;;;;;;;1765733;80;21046;-65
2022/10/26 12:01:37;;;;;;;7.60;5.00;;;;;;;;;;1758917;80;21047;-66
2022/10/26 12:04:04;;;;;;;7.28;4.70;;;;;;;;;;1753214;81;21538;-66
2022/10/26 12:06:30;;;;;;;7.25;4.65;;;;;;;;;;1739963;79;21030;-66
2022/10/26 12:09:00;;;;;;;7.08;4.70;;;;;;;;;;1781952;79;21563;-67
2022/10/26 12:11:28;;;;;;;7.92;4.60;;;;;;;;;;1765880;79;21548;-67
2022/10/26 12:14:03;;;;;;;6.37;4.30;;;;;;;;;;1760957;80;21138;-65
2022/10/26 12:16:31;;;;;;;9.00;4.80;;;;;;;;;;1773537;80;21014;-67
2022/10/26 12:19:00;;;;;;;7.25;4.97;;;;;;;;;;1771306;79;21029;-65
2022/10/26 12:21:27;;;;;;;5.42;4.45;;;;;;;;;;1763831;80;21103;-66
2022/10/26 12:23:57;;;;;;;9.15;5.00;;;;;;;;;;1764007;80;20998;-65
2022/10/26 12:26:25;;;;;;;6.15;4.25;;;;;;;;;;1763915;80;21096;-66
2022/10/26 12:29:05;;;;;;;7.58;4.22;;;;;;;;;;1775226;79;21029;-67
2022/10/26 12:31:38;;;;;;;8.00;4.72;;;;;;;;;;1758974;79;21031;-66
2022/10/26 12:34:06;;;;;;;8.88;4.00;;;;;;;;;;1776512;79;21489;-66
2022/10/26 12:36:47;;;;;;;7.20;4.03;;;;;;;;;;1768029;80;21048;-66
2022/10/26 12:39:32;;;;;;;7.67;4.58;;;;;;;;;;1774358;80;21043;-66
2022/10/26 12:42:06;;;;;;;5.50;3.83;;;;;;;;;;1776764;80;20984;-66
2022/10/26 12:44:40;;;;;;;8.33;4.20;;;;;;;;;;1764894;80;21067;-66
2022/10/26 12:47:09;;;;;;;6.45;3.85;;;;;;;;;;1766635;80;21004;-66
2022/10/26 12:49:55;;;;;;;6.92;4.45;;;;;;;;;;1761759;79;21105;-65
2022/10/26 12:52:28;;;;;;;9.93;4.62;;;;;;;;;;1769018;79;21043;-67
2022/10/26 12:54:59;;;;;;;6.65;4.15;;;;;;;;;;1764218;80;21093;-66
2022/10/26 12:57:27;;;;;;;7.15;5.08;;;;;;;;;;1762854;80;21066;-66
2022/10/26 12:59:56;;;;;;;7.22;4.80;;;;;;;;;;1773837;80;21040;-68
2022/10/26 13:02:30;;;;;;;9.10;5.47;;;;;;;;;;1763421;80;21048;-67
2022/10/26 13:05:01;;;;;;;6.87;4.45;;;;;;;;;;1755572;79;21099;-66
2022/10/26 13:07:29;;;;;;;7.97;5.25;;;;;;;;;;1760137;79;21063;-67
2022/10/26 13:10:12;;;;;;;7.42;4.60;;;;;;;;;;1762373;79;21576;-67
2022/10/26 13:12:38;;;;;;;;;;;;;;;;;;1759445;79;21057;-67
2022/10/26 13:15:06;;;;;;;7.10;4.45;;;;;;;;;;1763188;79;20794;-67
2022/10/26 13:17:32;;;;;;;9.50;5.47;;;;;;;;;;1762272;79;21004;-67
2022/10/26 13:20:03;;;;;;;9.48;4.78;;;;;;;;;;1758603;79;21087;-67
2022/10/26 13:22:29;;;;;;;9.45;5.00;;;;;;;;;;1758020;79;21185;-67
2022/10/26 13:25:02;;;;;;;7.47;4.45;;;;;;;;;;1757536;79;21061;-67
2022/10/26 13:27:33;;;;;;;7.30;4.65;;;;;;;;;;1754911;79;22229;-67
2022/10/26 13:30:03;;;;;;;8.63;4.50;;;;;;;;;;1764759;79;21097;-66
2022/10/26 13:32:40;;;;;;;10.00;4.22;;;;;;;;;;1760008;79;21556;-68
2022/10/26 13:35:13;;;;;;;6.95;4.30;;;;;;;;;;1760940;79;21519;-68
2022/10/26 13:37:40;;;;;;;7.35;4.40;;;;;;;;;;1754866;79;21059;-67
2022/10/26 13:40:10;;;;;;;9.80;4.80;;;;;;;;;;1760671;79;21097;-66
2022/10/26 13:42:39;;;;;;;7.03;4.53;;;;;;;;;;1762369;79;21054;-66
2022/10/26 13:45:06;;;;;;;7.12;4.35;;;;;;;;;;1774718;80;21047;-66
2022/10/26 13:47:44;;;;;;;8.28;4.37;;;;;;;;;;1768089;81;21023;-66
2022/10/26 13:50:12;;;;;;;6.80;4.00;;;;;;;;;;1767965;81;21084;-66
2022/10/26 13:52:39;;;;;;;8.78;4.20;;;;;;;;;;1767619;80;21044;-67
2022/10/26 13:55:13;;;;;;;7.42;3.90;;;;;;;;;;1767949;80;21598;-65
2022/10/26 13:57:43;;;;;;;6.12;3.98;;;;;;;;;;1767473;81;21495;-66
2022/10/26 14:00:16;;;;;;;8.00;4.10;;;;;;;;;;1764036;80;21031;-66
2022/10/26 14:02:42;;;;;;;;;;;;;;;;;;1767715;80;21094;-66
2022/10/26 14:05:09;;;;;;;9.25;4.20;;;;;;;;;;1765970;79;20146;-66
2022/10/26 14:07:41;;;;;;;6.80;4.22;;;;;;;;;;1750479;81;21103;-67
2022/10/26 14:10:25;;;;;;;5.20;3.80;;;;;;;;;;1748061;82;21023;-67
2022/10/26 14:12:54;;;;;;;6.22;4.22;;;;;;;;;;1733192;81;21054;-67
2022/10/26 14:15:29;;;;;;;5.53;3.85;;;;;;;;;;1738767;81;21507;-67
2022/10/26 14:17:56;;;;;;;7.72;4.37;;;;;;;;;;1743688;82;21080;-67
2022/10/26 14:20:23;;;;;;;7.22;4.28;;;;;;;;;;1743121;82;21080;-67
2022/10/26 14:22:50;;;;;;;5.83;3.77;;;;;;;;;;1743404;81;21099;-67
2022/10/26 14:25:19;;;;;;;8.05;4.15;;;;;;;;;;1742352;81;20994;-67
2022/10/26 14:27:45;;;;;;;6.90;4.28;;;;;;;;;;1737899;82;21106;-67
2022/10/26 14:30:25;;;;;;;6.47;4.22;;;;;;;;;;1748756;81;21023;-66
2022/10/26 14:32:52;;;;;;;8.30;4.08;;;;;;;;;;1734783;81;21054;-67
2022/10/26 14:35:20;;;;;;;7.58;4.60;;;;;;;;;;1739337;82;21161;-69
2022/10/26 14:37:54;;;;;;;6.60;4.25;;;;;;;;;;1744630;82;21598;-67
2022/10/26 14:40:21;;;;;;;7.35;4.30;;;;;;;;;;1749825;82;21027;-67
2022/10/26 14:42:51;;;;;;;6.17;4.00;;;;;;;;;;1747231;81;21595;-67
2022/10/26 14:45:29;;;;;;;6.25;4.58;;;;;;;;;;1747318;80;21063;-67
2022/10/26 14:47:56;;;;;;;6.12;3.87;;;;;;;;;;1742200;81;21024;-66
2022/10/26 14:50:23;;;;;;;6.17;3.72;;;;;;;;;;1748074;81;21602;-67
2022/10/26 14:52:50;;;;;;;7.20;4.10;;;;;;;;;;1741898;81;21044;-69
2022/10/26 14:55:16;;;;;;;6.62;4.12;;;;;;;;;;1750278;80;21082;-67
2022/10/26 14:57:44;;;;;;;4.75;3.67;;;;;;;;;;1747025;81;21036;-67
2022/10/26 15:00:15;;;;;;;5.92;4.05;;;;;;;;;;1746502;81;21588;-67
2022/10/26 15:02:42;;;;;;;6.72;4.33;;;;;;;;;;1742867;81;21559;-66
2022/10/26 15:05:19;;;;;;;8.08;4.65;;;;;;;;;;1747711;80;21064;-67
2022/10/26 15:07:45;;;;;;;6.33;4.15;;;;;;;;;;1765692;80;22199;-66
2022/10/26 15:10:32;;;;;;;6.83;4.45;;;;;;;;;;1763441;80;21075;-67
2022/10/26 15:13:00;;;;;;;8.25;4.80;;;;;;;;;;1779571;79;21052;-67
2022/10/26 15:15:27;;;;;;;6.45;4.03;;;;;;;;;;1782332;79;21007;-67
2022/10/26 15:17:55;;;;;;;6.28;3.80;;;;;;;;;;1786205;79;21264;-67
2022/10/26 15:20:23;;;;;;;7.80;4.10;;;;;;;;;;1767641;79;21035;-67
2022/10/26 15:22:51;;;;;;;7.15;5.22;;;;;;;;;;1770131;79;21029;-66
2022/10/26 15:25:22;;;;;;;12.68;8.70;;;;;;;;;;1766331;79;21075;-67
2022/10/26 15:27:50;;;;;;;7.33;3.52;;;;;;;;;;1771231;80;21045;-67